Time;durP1;ratioP1;P1;durP2;ratioP2;P2;SDS_P1;SDS_P2;PMS_P1;PMS_P2;Temp;Humidity;BMP_temperature;BMP_pressure;BME280_temperature;BME280_humidity;BME280_pressure;Samples;Min_cycle;Max_cycle;Signal;HPM_P1;HPM_P2
2021/11/19 00:01:31;;;;;;;;;12.50;11.75;;;;;21.71;38.88;102887.34;5004253;28;51231;-43
2021/11/19 00:03:56;;;;;;;;;9.75;9.75;;;;;21.70;38.83;102893.91;4999116;28;51088;-44
2021/11/19 00:06:22;;;;;;;;;10.75;10.00;;;;;21.69;39.29;102896.84;5009241;28;51236;-50
2021/11/19 00:08:50;;;;;;;;;12.75;11.25;;;;;21.68;39.26;102893.25;5032130;27;51150;-42
2021/11/19 00:11:22;;;;;;;;;12.00;11.00;;;;;21.66;39.23;102889.78;5006468;28;51202;-48
2021/11/19 00:13:47;;;;;;;;;15.75;10.00;;;;;21.65;39.31;102893.59;5020963;27;51751;-44
2021/11/19 00:16:15;;;;;;;;;10.25;9.25;;;;;21.64;38.73;102888.25;5022913;27;51179;-46
2021/11/19 00:18:42;;;;;;;;;9.25;9.25;;;;;21.63;39.35;102881.88;5005596;28;51069;-44
2021/11/19 00:21:08;;;;;;;;;11.25;10.00;;;;;21.63;38.76;102883.78;4997506;28;51154;-45
2021/11/19 00:23:34;;;;;;;;;10.50;10.50;;;;;21.60;39.17;102887.78;5007462;28;50992;-49
2021/11/19 00:26:00;;;;;;;;;10.00;9.00;;;;;21.60;38.78;102888.63;5003367;28;51923;-44
2021/11/19 00:28:26;;;;;;;;;13.50;12.00;;;;;21.59;39.35;102886.91;5015372;27;51121;-46
2021/11/19 00:30:52;;;;;;;;;9.00;8.75;;;;;21.58;39.28;102881.56;5004128;28;51232;-44
2021/11/19 00:33:18;;;;;;;;;9.25;9.25;;;;;21.56;39.40;102881.72;5005264;27;51049;-47
2021/11/19 00:35:46;;;;;;;;;12.75;10.00;;;;;21.55;38.96;102885.53;5006779;27;51004;-46
2021/11/19 00:38:14;;;;;;;;;13.00;11.25;;;;;21.54;39.37;102877.44;5004694;27;51300;-44
2021/11/19 00:40:58;;;;;;;;;13.25;11.25;;;;;21.54;38.99;102871.94;5007586;28;52388;-44
2021/11/19 00:43:24;;;;;;;;;11.50;9.75;;;;;21.53;38.89;102875.72;5009938;28;53326;-43
2021/11/19 00:45:51;;;;;;;;;12.00;10.00;;;;;21.52;39.00;102874.00;5011177;28;51295;-48
2021/11/19 00:48:18;;;;;;;;;11.50;10.00;;;;;21.51;39.27;102866.78;5001800;28;51243;-44
2021/11/19 00:50:50;;;;;;;;;10.25;8.50;;;;;21.50;39.28;102868.69;5004954;28;51007;-46
2021/11/19 00:53:16;;;;;;;;;10.75;7.75;;;;;21.49;39.45;102874.38;5010243;27;51040;-47
2021/11/19 00:55:41;;;;;;;;;11.00;8.75;;;;;21.49;39.54;102882.66;5005043;28;51132;-47
2021/11/19 00:58:08;;;;;;;;;16.50;9.50;;;;;21.46;39.38;102881.09;5004563;27;51408;-42
2021/11/19 01:00:39;;;;;;;;;11.75;8.50;;;;;21.46;39.26;102878.34;4996870;27;51395;-48
2021/11/19 01:03:05;;;;;;;;;11.75;9.25;;;;;21.45;39.11;102873.00;5003775;27;51378;-46
2021/11/19 01:05:31;;;;;;;;;10.00;9.50;;;;;21.42;39.20;102871.47;5007849;27;51530;-46
2021/11/19 01:07:57;;;;;;;;;10.75;9.25;;;;;21.42;39.12;102877.00;5005126;28;51242;-45
2021/11/19 01:10:27;;;;;;;;;14.50;9.25;;;;;21.41;39.25;102868.91;4990131;27;51290;-46
2021/11/19 01:12:52;;;;;;;;;8.75;8.75;;;;;21.41;39.54;102866.16;5010788;28;51952;-48
2021/11/19 01:15:21;;;;;;;;;8.50;8.50;;;;;21.39;39.55;102859.97;4992803;27;51289;-47
2021/11/19 01:18:00;;;;;;;;;14.50;11.00;;;;;21.39;39.15;102851.69;5001931;27;51017;-44
2021/11/19 01:20:45;;;;;;;;;10.00;9.75;;;;;21.37;39.45;102865.66;5008973;28;51248;-49
2021/11/19 01:23:12;;;;;;;;;10.00;8.25;;;;;21.37;39.22;102870.31;5001992;28;51011;-48
2021/11/19 01:25:45;;;;;;;;;12.25;8.50;;;;;21.34;39.17;102863.25;5009531;28;51355;-46
2021/11/19 01:28:10;;;;;;;;;10.50;9.00;;;;;21.34;39.45;102857.72;5015596;28;51115;-48
2021/11/19 01:30:41;;;;;;;;;14.25;10.00;;;;;21.33;39.11;102850.50;5006401;28;51153;-45
2021/11/19 01:33:07;;;;;;;;;12.50;8.50;;;;;21.32;39.29;102849.63;5001924;28;51963;-44
2021/11/19 01:35:34;;;;;;;;;7.00;7.00;;;;;21.31;39.27;102858.09;5002078;28;51118;-45
2021/11/19 01:37:59;;;;;;;;;8.50;8.00;;;;;21.29;39.61;102861.03;5001826;28;51297;-44
2021/11/19 01:40:29;;;;;;;;;9.00;7.75;;;;;21.29;39.30;102861.03;5004183;28;51176;-43
2021/11/19 01:42:59;;;;;;;;;9.50;7.50;;;;;21.28;39.27;102856.56;5004833;28;52061;-44
2021/11/19 01:45:31;;;;;;;;;10.75;9.50;;;;;21.27;39.77;102851.25;5011712;28;51020;-44
2021/11/19 01:47:57;;;;;;;;;8.00;8.00;;;;;21.26;39.62;102855.88;5006705;28;51179;-45
2021/11/19 01:50:33;;;;;;;;;8.75;7.25;;;;;21.26;39.39;102852.28;5004511;28;51117;-42
2021/11/19 01:53:12;;;;;;;;;6.25;6.25;;;;;21.24;39.78;102857.91;5042561;27;52471;-47
2021/11/19 01:55:47;;;;;;;;;12.75;12.00;;;;;21.24;39.28;102851.53;5007187;28;51159;-44
2021/11/19 01:58:18;;;;;;;;;11.00;9.50;;;;;21.22;39.72;102848.09;5005116;28;51065;-42
2021/11/19 02:00:54;;;;;;;;;12.50;7.25;;;;;21.21;39.37;102846.41;5009686;28;51250;-44
2021/11/19 02:03:23;;;;;;;;;10.00;7.50;;;;;21.21;39.26;102843.63;5006433;28;51129;-44
2021/11/19 02:06:03;;;;;;;;;9.50;7.00;;;;;21.20;39.53;102845.53;5022516;27;51033;-43
2021/11/19 02:08:33;;;;;;;;;10.00;8.50;;;;;21.19;39.85;102849.34;4997757;28;51120;-44
2021/11/19 02:11:06;;;;;;;;;9.25;7.50;;;;;21.18;39.47;102842.09;5003891;28;51296;-42
2021/11/19 02:13:48;;;;;;;;;9.75;8.25;;;;;21.18;39.87;102846.75;5007121;28;51645;-42
2021/11/19 02:16:20;;;;;;;;;9.00;8.25;;;;;21.16;39.29;102844.19;5006457;28;50998;-42
2021/11/19 02:18:57;;;;;;;;;9.50;8.00;;;;;21.15;39.25;102842.44;5002415;28;51358;-42
2021/11/19 02:21:31;;;;;;;;;12.50;6.75;;;;;21.15;39.36;102839.69;4994816;27;51272;-42
2021/11/19 02:24:04;;;;;;;;;10.00;7.75;;;;;21.13;39.51;102833.50;4999131;28;51308;-44
2021/11/19 02:26:36;;;;;;;;;9.75;9.25;;;;;21.12;39.56;102840.06;5011090;27;51673;-44
2021/11/19 02:29:04;;;;;;;;;7.25;7.25;;;;;21.12;39.68;102837.28;5020610;27;51425;-42
2021/11/19 02:31:34;;;;;;;;;7.00;7.00;;;;;21.12;39.25;102839.19;5001900;28;51117;-46
2021/11/19 02:34:03;;;;;;;;;10.50;10.00;;;;;21.11;39.29;102846.59;5001582;28;53469;-42
2021/11/19 02:36:44;;;;;;;;;9.00;8.25;;;;;21.10;39.57;102842.13;5014137;28;50956;-43
2021/11/19 02:39:24;;;;;;;;;10.25;7.75;;;;;21.10;39.97;102849.53;5000929;28;51223;-43
2021/11/19 02:41:54;;;;;;;;;10.25;7.50;;;;;21.09;39.94;102840.41;5051004;27;51371;-42
2021/11/19 02:44:23;;;;;;;;;10.25;8.50;;;;;21.08;39.87;102835.94;5016261;28;51789;-43
2021/11/19 02:46:55;;;;;;;;;9.25;8.50;;;;;21.08;39.57;102832.34;5008509;28;51058;-46
2021/11/19 02:49:21;;;;;;;;;10.75;8.50;;;;;21.07;39.96;102833.38;5009764;28;51178;-41
2021/11/19 02:51:47;;;;;;;;;10.50;9.00;;;;;21.06;39.58;102840.78;5012209;28;51073;-45
2021/11/19 02:54:16;;;;;;;;;9.75;7.75;;;;;21.05;39.35;102844.59;5003255;27;52645;-43
2021/11/19 02:56:44;;;;;;;;;9.00;6.25;;;;;21.04;39.63;102842.84;5008027;28;51280;-42
2021/11/19 02:59:10;;;;;;;;;8.50;8.00;;;;;21.03;39.91;102839.22;5013620;28;51222;-42
2021/11/19 03:01:39;;;;;;;;;8.25;8.25;;;;;21.03;39.57;102841.97;5012301;28;50953;-44
2021/11/19 03:04:07;;;;;;;;;6.25;6.25;;;;;21.03;39.81;102841.13;5007353;28;51520;-42
2021/11/19 03:06:37;;;;;;;;;9.25;8.50;;;;;21.02;39.76;102833.91;5004749;28;51418;-42
2021/11/19 03:09:04;;;;;;;;;10.00;7.25;;;;;21.02;39.83;102836.66;5015742;28;51496;-44
2021/11/19 03:11:30;;;;;;;;;8.75;8.50;;;;;21.01;39.60;102829.44;5010134;27;51410;-43
2021/11/19 03:13:56;;;;;;;;;8.00;7.25;;;;;21.00;39.62;102833.22;5013001;27;51714;-42
2021/11/19 03:16:21;;;;;;;;;7.75;7.00;;;;;20.98;39.48;102830.66;5012103;28;51072;-42
2021/11/19 03:18:48;;;;;;;;;8.25;8.25;;;;;20.98;39.98;102827.91;5029441;27;51039;-43
2021/11/19 03:21:16;;;;;;;;;9.00;8.50;;;;;20.98;39.71;102836.16;5007480;27;51172;-43
2021/11/19 03:23:43;;;;;;;;;7.00;7.00;;;;;20.97;39.53;102828.94;5010935;28;51908;-43
2021/11/19 03:26:09;;;;;;;;;8.25;8.25;;;;;20.96;39.28;102821.72;5009910;28;51158;-43
2021/11/19 03:28:35;;;;;;;;;6.00;5.75;;;;;20.95;39.57;102814.47;5008779;28;51089;-43
2021/11/19 03:31:08;;;;;;;;;9.25;8.00;;;;;20.95;39.66;102819.13;5046951;27;50968;-43
2021/11/19 03:33:37;;;;;;;;;9.00;6.75;;;;;20.94;39.49;102821.00;5024969;27;50958;-43
2021/11/19 03:36:04;;;;;;;;;10.50;7.00;;;;;20.93;39.81;102818.44;5024655;27;51188;-43
2021/11/19 03:38:33;;;;;;;;;8.00;7.00;;;;;20.92;39.75;102817.56;5007450;28;51099;-45
2021/11/19 03:40:59;;;;;;;;;8.75;7.00;;;;;20.93;40.05;102822.03;5009057;28;50961;-43
2021/11/19 03:43:29;;;;;;;;;8.50;8.00;;;;;20.92;39.84;102816.72;5008679;27;53041;-42
2021/11/19 03:46:01;;;;;;;;;7.00;6.50;;;;;20.91;39.76;102818.63;5036460;27;51439;-42
2021/11/19 03:48:27;;;;;;;;;8.00;8.00;;;;;20.92;40.07;102819.47;5005709;27;51182;-45
2021/11/19 03:50:57;;;;;;;;;9.00;7.50;;;;;20.90;39.64;102821.53;5013524;28;51249;-43
2021/11/19 03:53:25;;;;;;;;;10.00;10.00;;;;;20.91;39.97;102820.50;5009722;28;50951;-45
2021/11/19 03:55:52;;;;;;;;;6.75;6.25;;;;;20.89;39.75;102815.19;5005918;28;51025;-48
2021/11/19 03:58:22;;;;;;;;;6.50;6.50;;;;;20.88;39.61;102813.47;5012500;27;51183;-48
2021/11/19 04:00:58;;;;;;;;;9.75;8.75;;;;;20.88;39.69;102812.59;5010581;28;51357;-48
2021/11/19 04:03:25;;;;;;;;;11.00;7.75;;;;;20.87;40.08;102811.75;5006125;28;51992;-45
2021/11/19 04:05:51;;;;;;;;;8.25;8.25;;;;;20.87;39.89;102817.25;5005497;28;51121;-47
2021/11/19 04:08:16;;;;;;;;;10.00;8.00;;;;;20.87;40.05;102820.00;4997598;28;51282;-46
2021/11/19 04:10:43;;;;;;;;;8.25;8.00;;;;;20.86;39.77;102812.78;5013535;27;51228;-47
2021/11/19 04:13:09;;;;;;;;;7.00;7.00;;;;;20.84;39.86;102816.72;5005228;28;50956;-43
2021/11/19 04:15:39;;;;;;;;;9.00;7.00;;;;;20.85;40.18;102812.97;5006321;27;51300;-44
2021/11/19 04:18:06;;;;;;;;;9.00;5.75;;;;;20.84;40.29;102814.88;5005326;28;51185;-48
2021/11/19 04:20:31;;;;;;;;;11.00;9.25;;;;;20.84;39.69;102825.00;5003498;28;51186;-45
2021/11/19 04:22:58;;;;;;;;;6.75;6.75;;;;;20.83;39.74;102815.03;5014814;27;51260;-45
2021/11/19 04:25:25;;;;;;;;;5.75;5.75;;;;;20.82;40.02;102819.66;5006452;27;51507;-44
2021/11/19 04:27:51;;;;;;;;;8.75;5.50;;;;;20.80;39.98;102821.75;5012728;28;51120;-47
2021/11/19 04:30:23;;;;;;;;;7.00;7.00;;;;;20.81;39.95;102820.72;5009389;28;51255;-48
2021/11/19 04:32:49;;;;;;;;;9.00;7.50;;;;;20.79;40.02;102820.03;4997222;28;51251;-50
2021/11/19 04:35:15;;;;;;;;;9.50;7.50;;;;;20.80;40.09;102821.75;5003978;28;51589;-44
2021/11/19 04:37:40;;;;;;;;;10.00;9.00;;;;;20.79;40.36;102817.28;5005932;27;51050;-46
2021/11/19 04:40:07;;;;;;;;;9.25;7.75;;;;;20.78;40.29;102820.22;5006121;28;51681;-45
2021/11/19 04:42:34;;;;;;;;;7.00;7.00;;;;;20.78;40.12;102825.72;5035558;27;51934;-44
2021/11/19 04:44:59;;;;;;;;;8.25;6.75;;;;;20.77;39.92;102827.63;5012784;27;50926;-45
2021/11/19 04:47:25;;;;;;;;;11.50;7.25;;;;;20.77;40.11;102815.75;5009862;27;51448;-43
2021/11/19 04:49:50;;;;;;;;;9.00;8.00;;;;;20.77;39.97;102826.75;4999126;28;51064;-46
2021/11/19 04:52:16;;;;;;;;;8.25;7.00;;;;;20.77;40.13;102818.50;5012286;28;51566;-48
2021/11/19 04:54:43;;;;;;;;;9.25;9.25;;;;;20.76;40.12;102814.88;5005524;28;51170;-48
2021/11/19 04:57:09;;;;;;;;;13.00;7.50;;;;;20.77;39.65;102819.34;5027588;27;51053;-45
2021/11/19 04:59:35;;;;;;;;;8.50;8.00;;;;;20.75;39.91;102822.28;5036083;27;51068;-47
2021/11/19 05:02:07;;;;;;;;;7.25;6.00;;;;;20.75;40.00;102822.28;5001192;28;51036;-48
2021/11/19 05:04:33;;;;;;;;;8.25;8.25;;;;;20.74;40.09;102826.09;4997588;28;51180;-46
2021/11/19 05:06:58;;;;;;;;;7.50;7.00;;;;;20.74;40.15;102825.22;5004976;28;51129;-45
2021/11/19 05:09:26;;;;;;;;;6.00;6.00;;;;;20.72;39.93;102822.63;5008826;28;51033;-48
2021/11/19 05:12:08;;;;;;;;;6.25;6.25;;;;;20.72;40.10;102819.88;5003991;28;51070;-48
2021/11/19 05:14:34;;;;;;;;;6.25;5.50;;;;;20.73;40.19;102817.97;5010513;28;51396;-45
2021/11/19 05:17:03;;;;;;;;;11.75;8.25;;;;;20.71;40.09;102806.28;5010051;28;51179;-43
2021/11/19 05:19:29;;;;;;;;;8.00;6.00;;;;;20.70;40.01;102816.44;5010790;28;51073;-44
2021/11/19 05:21:54;;;;;;;;;7.50;7.50;;;;;20.71;40.00;102815.41;5000484;28;52019;-48
2021/11/19 05:24:20;;;;;;;;;8.25;7.00;;;;;20.71;40.37;102815.41;5012130;28;51086;-45
2021/11/19 05:26:48;;;;;;;;;7.00;7.00;;;;;20.70;40.31;102808.19;5008890;28;51184;-49
2021/11/19 05:29:14;;;;;;;;;12.00;10.00;;;;;20.70;40.39;102805.44;5011437;27;51344;-44
2021/11/19 05:31:41;;;;;;;;;8.50;6.50;;;;;20.70;40.44;102799.06;5004815;27;51022;-45
2021/11/19 05:34:07;;;;;;;;;7.00;5.00;;;;;20.69;40.02;102803.72;5022392;27;51176;-42
2021/11/19 05:36:33;;;;;;;;;8.75;7.00;;;;;20.69;40.05;102800.09;5004574;27;51186;-45
2021/11/19 05:38:58;;;;;;;;;9.25;6.75;;;;;20.68;39.97;102818.53;5004874;27;50967;-42
2021/11/19 05:41:26;;;;;;;;;13.50;11.00;;;;;20.66;39.60;102815.09;5008063;28;51163;-43
2021/11/19 05:43:54;;;;;;;;;13.00;11.75;;;;;20.64;39.13;102819.91;5006751;27;51321;-41
2021/11/19 05:46:23;;;;;;;;;16.00;11.75;;;;;20.60;38.87;102821.28;5007935;28;51001;-41
2021/11/19 05:48:50;;;;;;;;;18.25;15.25;;;;;20.57;38.88;102820.78;5007534;28;51147;-45
2021/11/19 05:51:17;;;;;;;;;16.50;14.50;;;;;20.51;38.64;102825.09;5003218;28;53388;-47
2021/11/19 05:53:43;;;;;;;;;12.50;10.25;;;;;20.50;38.50;102828.88;5009747;27;51156;-48
2021/11/19 05:56:11;;;;;;;;;15.50;15.00;;;;;20.45;38.34;102821.16;5032518;27;51258;-49
2021/11/19 05:58:36;;;;;;;;;14.00;12.00;;;;;20.44;38.42;102837.84;5040803;27;51230;-49
2021/11/19 06:01:06;;;;;;;;;18.25;17.50;;;;;20.39;38.23;102835.56;5004774;27;51876;-49
2021/11/19 06:03:32;;;;;;;;;15.25;11.00;;;;;20.35;38.30;102827.84;5002560;27;51542;-45
2021/11/19 06:05:57;;;;;;;;;13.25;13.25;;;;;20.35;38.35;102825.94;5001826;28;51161;-49
2021/11/19 06:08:23;;;;;;;;;14.00;12.25;;;;;20.40;38.48;102823.53;5005004;28;51165;-42
2021/11/19 06:10:53;;;;;;;;;15.75;13.50;;;;;20.48;38.45;102825.44;5015303;27;51725;-45
2021/11/19 06:13:37;;;;;;;;;13.25;12.50;;;;;20.58;38.13;102828.88;5005669;28;50976;-43
2021/11/19 06:16:08;;;;;;;;;8.25;8.25;;;;;20.68;38.61;102829.53;5070386;27;51187;-45
2021/11/19 06:18:39;;;;;;;;;11.00;10.00;;;;;20.78;38.77;102828.47;5009998;28;51271;-43
2021/11/19 06:21:09;;;;;;;;;8.25;8.25;;;;;20.87;38.68;102820.00;5004278;27;51155;-45
2021/11/19 06:23:45;;;;;;;;;14.00;11.25;;;;;20.97;38.46;102823.41;4999268;28;51185;-43
2021/11/19 06:26:14;;;;;;;;;12.50;7.25;;;;;21.07;39.04;102833.38;5001519;28;51778;-47
2021/11/19 06:28:51;;;;;;;;;5.75;5.75;;;;;21.15;38.82;102825.91;4998806;28;51130;-48
2021/11/19 06:31:21;;;;;;;;;8.75;7.00;;;;;21.25;38.89;102828.44;5005473;27;52051;-45
2021/11/19 06:33:47;;;;;;;;;9.25;6.25;;;;;21.32;38.82;102830.34;4978853;27;50991;-44
2021/11/19 06:36:13;;;;;;;;;9.25;8.25;;;;;21.40;38.87;102831.34;4999664;28;51107;-43
2021/11/19 06:38:42;;;;;;;;;10.00;8.00;;;;;21.48;38.34;102828.56;5002421;28;51692;-43
2021/11/19 06:41:07;;;;;;;;;8.00;5.50;;;;;21.56;38.64;102836.75;4998976;28;52140;-43
2021/11/19 06:43:33;;;;;;;;;9.25;6.00;;;;;21.63;38.16;102834.13;4993685;28;51144;-41
2021/11/19 06:45:59;;;;;;;;;7.75;7.75;;;;;21.70;38.20;102837.88;4995688;28;51200;-43
2021/11/19 06:48:24;;;;;;;;;8.50;7.00;;;;;21.76;38.64;102838.00;5005363;27;51393;-44
2021/11/19 06:50:50;;;;;;;;;7.75;7.75;;;;;21.79;38.53;102843.16;5004120;28;51761;-44
2021/11/19 06:53:17;;;;;;;;;8.75;8.00;;;;;21.80;38.61;102844.88;5007694;28;51063;-43
2021/11/19 06:55:44;;;;;;;;;7.25;5.50;;;;;21.79;38.60;102843.16;4996022;28;51320;-44
2021/11/19 06:58:11;;;;;;;;;6.75;5.00;;;;;21.77;38.62;102842.47;5001552;28;51111;-46
2021/11/19 07:00:44;;;;;;;;;7.00;6.25;;;;;21.76;38.66;102843.50;5006482;28;51332;-42
2021/11/19 07:03:10;;;;;;;;;8.50;7.00;;;;;21.75;38.67;102839.03;5005364;28;51328;-43
2021/11/19 07:05:37;;;;;;;;;6.25;6.25;;;;;21.77;39.09;102845.22;5006805;28;51087;-43
2021/11/19 07:08:04;;;;;;;;;8.25;6.25;;;;;21.84;39.23;102850.88;5000528;28;51314;-44
2021/11/19 07:10:31;;;;;;;;;8.00;6.25;;;;;21.92;38.97;102864.63;5001886;28;52098;-45
2021/11/19 07:12:56;;;;;;;;;8.00;7.25;;;;;22.01;38.84;102859.91;4998193;27;51188;-45
2021/11/19 07:15:23;;;;;;;;;9.00;9.00;;;;;22.05;38.51;102862.09;5010030;28;51206;-45
2021/11/19 07:17:49;;;;;;;;;8.00;8.00;;;;;22.10;38.57;102861.59;5010747;27;51210;-43
2021/11/19 07:20:20;;;;;;;;;8.25;8.25;;;;;22.14;38.75;102871.22;5011646;27;51897;-43
2021/11/19 07:22:46;;;;;;;;;12.00;9.75;;;;;22.14;38.53;102869.31;5009892;27;51261;-43
2021/11/19 07:25:15;;;;;;;;;7.00;6.00;;;;;22.14;38.30;102874.84;5005067;28;50997;-43
2021/11/19 07:27:42;;;;;;;;;8.50;8.00;;;;;22.11;38.17;102871.59;5013492;27;52444;-47
2021/11/19 07:30:14;;;;;;;;;10.50;10.50;;;;;22.09;38.62;102874.53;5008835;27;51837;-44
2021/11/19 07:32:39;;;;;;;;;11.00;9.50;;;;;22.08;38.34;102877.47;5005421;27;51558;-41
2021/11/19 07:35:05;;;;;;;;;10.75;9.00;;;;;22.05;38.62;102881.44;5019328;28;51115;-47
2021/11/19 07:37:30;;;;;;;;;12.00;9.50;;;;;22.08;38.42;102882.97;5050901;27;51122;-48
2021/11/19 07:39:58;;;;;;;;;8.50;7.25;;;;;22.13;38.19;102880.53;5019400;28;51991;-47
2021/11/19 07:42:23;;;;;;;;;10.50;10.50;;;;;22.19;38.46;102885.31;5011977;28;51226;-45
2021/11/19 07:44:49;;;;;;;;;8.75;6.25;;;;;22.25;38.01;102886.47;5013123;28;51387;-46
2021/11/19 07:47:14;;;;;;;;;13.25;7.50;;;;;22.29;38.17;102888.69;5013348;27;51151;-46
2021/11/19 07:49:39;;;;;;;;;10.75;9.00;;;;;22.29;38.47;102894.19;5012592;28;51096;-45
2021/11/19 07:52:05;;;;;;;;;10.00;8.00;;;;;22.29;38.41;102898.88;5016774;27;51124;-47
2021/11/19 07:54:31;;;;;;;;;10.75;7.75;;;;;22.24;38.34;102893.91;5013585;28;51311;-44
2021/11/19 07:56:56;;;;;;;;;9.25;8.00;;;;;22.19;38.16;102893.59;5008863;27;51180;-47
2021/11/19 07:59:25;;;;;;;;;8.25;7.00;;;;;22.17;38.59;102898.44;5013434;27;51977;-46
2021/11/19 08:01:53;;;;;;;;;9.50;7.50;;;;;22.11;38.16;102900.06;5010474;27;51451;-46
2021/11/19 08:04:19;;;;;;;;;8.00;7.75;;;;;22.06;38.14;102899.72;5014332;28;51139;-44
2021/11/19 08:06:44;;;;;;;;;12.25;8.75;;;;;22.02;38.79;102894.75;5014856;28;51056;-48
2021/11/19 08:09:11;;;;;;;;;7.50;5.25;;;;;21.97;38.71;102897.19;5013984;28;51280;-45
2021/11/19 08:11:36;;;;;;;;;9.50;8.25;;;;;21.93;38.34;102902.22;5014367;27;51335;-47
2021/11/19 08:14:03;;;;;;;;;9.50;7.00;;;;;21.89;38.33;102907.25;5014669;27;51226;-49
2021/11/19 08:16:35;;;;;;;;;8.25;8.00;;;;;21.84;38.78;102903.31;5014602;27;51273;-45
2021/11/19 08:19:02;;;;;;;;;9.00;7.25;;;;;21.79;38.97;102903.88;5014088;28;50980;-46
2021/11/19 08:21:28;;;;;;;;;9.00;7.75;;;;;21.75;38.60;102908.00;5014312;27;50986;-47
2021/11/19 08:23:58;;;;;;;;;8.75;7.00;;;;;21.72;39.01;102900.09;5014369;28;51189;-46
2021/11/19 08:26:38;;;;;;;;;8.00;7.00;;;;;21.66;38.69;102900.81;5018676;28;51339;-46
2021/11/19 08:29:07;;;;;;;;;8.00;8.00;;;;;21.65;38.54;102899.09;5033838;28;51062;-45
2021/11/19 08:31:33;;;;;;;;;9.50;9.00;;;;;21.62;39.03;102893.97;5034114;28;51342;-45
2021/11/19 08:33:58;;;;;;;;;8.75;7.00;;;;;21.59;39.04;102902.59;5033265;28;51242;-47
2021/11/19 08:36:29;;;;;;;;;9.00;6.50;;;;;21.56;38.67;102903.78;5034274;28;50994;-48
2021/11/19 08:38:54;;;;;;;;;10.00;9.00;;;;;21.54;39.28;102902.25;5034082;28;51045;-43
2021/11/19 08:41:21;;;;;;;;;10.50;7.00;;;;;21.52;39.05;102901.59;5034292;27;50965;-47
2021/11/19 08:43:49;;;;;;;;;9.25;8.00;;;;;21.49;38.68;102902.81;5034175;28;51201;-45
2021/11/19 08:46:19;;;;;;;;;10.00;8.00;;;;;21.47;38.79;102893.00;5034217;27;51285;-47
2021/11/19 08:48:49;;;;;;;;;9.00;7.50;;;;;21.44;39.31;102896.09;5015192;28;53763;-48
2021/11/19 08:51:18;;;;;;;;;13.50;7.75;;;;;21.42;38.86;102895.44;5033917;28;51166;-42
2021/11/19 08:53:48;;;;;;;;;9.50;7.75;;;;;21.39;39.31;102895.81;5033892;28;51065;-48
2021/11/19 08:56:14;;;;;;;;;8.00;7.50;;;;;21.35;39.13;102891.66;5034036;28;51296;-49
2021/11/19 08:58:41;;;;;;;;;10.25;7.75;;;;;21.35;39.35;102891.66;5030844;28;51046;-48
2021/11/19 09:01:08;;;;;;;;;5.75;5.00;;;;;21.32;39.33;102888.22;5013527;28;51314;-48
2021/11/19 09:03:34;;;;;;;;;7.75;7.00;;;;;21.29;38.82;102890.50;5013642;27;50957;-45
2021/11/19 09:06:01;;;;;;;;;8.00;7.75;;;;;21.28;38.88;102903.44;5014098;28;51019;-42
2021/11/19 09:08:29;;;;;;;;;8.25;8.25;;;;;21.27;38.99;102898.09;5013397;27;51194;-45
2021/11/19 09:10:56;;;;;;;;;10.75;10.00;;;;;21.24;39.02;102902.00;5013404;28;50968;-44
2021/11/19 09:13:22;;;;;;;;;7.75;7.25;;;;;21.23;39.09;102904.94;5013888;28;51083;-44
2021/11/19 09:15:48;;;;;;;;;7.75;7.75;;;;;21.21;39.11;102907.03;5013983;28;51070;-45
2021/11/19 09:18:31;;;;;;;;;6.50;6.50;;;;;21.19;39.09;102907.22;5013704;28;51816;-45
2021/11/19 09:21:09;;;;;;;;;7.00;7.00;;;;;21.19;39.39;102911.88;5013580;28;51032;-44
2021/11/19 09:24:16;;;;;;;;;10.00;10.00;;;;;21.17;39.17;102905.69;5013739;28;51051;-47
2021/11/19 09:26:47;;;;;;;;;6.25;6.00;;;;;21.15;39.35;102919.59;5033666;28;51137;-48
2021/11/19 09:29:18;;;;;;;;;13.50;10.75;;;;;21.14;39.43;102906.00;4998953;28;51129;-42
2021/11/19 09:31:45;;;;;;;;;9.50;7.75;;;;;21.11;39.06;102917.41;4993687;28;51126;-46
2021/11/19 09:34:11;;;;;;;;;8.75;7.00;;;;;21.10;38.95;102918.44;4993713;28;51138;-43
2021/11/19 09:36:38;;;;;;;;;8.50;8.50;;;;;21.09;38.98;102923.09;4993889;28;50926;-45
2021/11/19 09:39:07;;;;;;;;;8.50;8.50;;;;;21.08;39.31;102918.63;4993563;28;51790;-46
2021/11/19 09:41:48;;;;;;;;;7.00;6.25;;;;;21.07;39.19;102919.66;4993424;28;51168;-47
2021/11/19 09:44:13;;;;;;;;;8.75;8.00;;;;;21.06;39.43;102923.44;4993805;27;51153;-47
2021/11/19 09:47:12;;;;;;;;;7.00;7.00;;;;;21.04;39.55;102920.84;4992363;28;50973;-44
2021/11/19 09:49:59;;;;;;;;;12.00;10.75;;;;;21.03;39.38;102921.03;4992811;28;51003;-43
2021/11/19 09:52:24;;;;;;;;;11.00;9.00;;;;;21.00;39.25;102915.88;4993292;28;51115;-44
2021/11/19 09:55:24;;;;;;;;;7.00;7.00;;;;;21.00;39.60;102916.75;4993499;27;51172;-43
2021/11/19 09:58:02;;;;;;;;;6.50;6.50;;;;;21.01;38.99;102920.34;4993591;28;50891;-43
2021/11/19 10:00:38;;;;;;;;;8.75;8.25;;;;;20.99;39.47;102916.91;5010174;28;51149;-44
2021/11/19 10:03:19;;;;;;;;;9.25;8.25;;;;;20.98;39.38;102916.06;5013061;27;50971;-45
2021/11/19 10:06:06;;;;;;;;;9.50;8.00;;;;;20.98;39.46;102915.19;5012801;28;50968;-44
2021/11/19 10:08:44;;;;;;;;;8.75;7.50;;;;;20.96;39.60;102909.88;4995275;28;51232;-44
2021/11/19 10:11:10;;;;;;;;;14.00;9.00;;;;;20.95;39.49;102913.66;5012526;28;51978;-44
2021/11/19 10:13:48;;;;;;;;;9.00;6.25;;;;;20.94;39.58;102906.41;5012711;27;51067;-46
2021/11/19 10:16:31;;;;;;;;;8.75;7.50;;;;;20.93;39.09;102903.84;5012810;28;51029;-47
2021/11/19 10:23:54;;;;;;;;;7.25;7.25;;;;;20.92;39.34;102899.38;5011488;28;75308;-43
2021/11/19 10:26:26;;;;;;;;;9.00;8.50;;;;;20.90;39.30;102895.94;5016962;27;51048;-44
2021/11/19 10:29:05;;;;;;;;;9.50;8.50;;;;;20.88;39.54;102896.09;5032513;28;51081;-42
2021/11/19 10:31:31;;;;;;;;;11.75;8.50;;;;;20.88;39.31;102898.00;5031990;27;51072;-43
2021/11/19 10:34:14;;;;;;;;;8.00;6.50;;;;;20.87;39.43;102897.16;5032262;28;50933;-43
2021/11/19 10:36:42;;;;;;;;;11.75;9.75;;;;;20.87;39.35;102899.03;5032641;28;51075;-43
2021/11/19 10:39:29;;;;;;;;;12.25;10.00;;;;;20.87;39.62;102899.03;5032562;28;51517;-43
2021/11/19 10:42:36;;;;;;;;;7.75;7.75;;;;;20.86;39.27;102897.31;5032146;28;52177;-43
2021/11/19 10:45:19;;;;;;;;;11.25;9.50;;;;;20.85;39.24;102895.63;5047534;28;51050;-42
2021/11/19 10:48:06;;;;;;;;;9.75;8.50;;;;;20.84;39.63;102893.88;5032235;28;51069;-42
2021/11/19 10:51:03;;;;;;;;;12.00;9.25;;;;;20.84;39.69;102891.09;5031896;28;51019;-42
2021/11/19 10:54:17;;;;;;;;;12.00;12.00;;;;;20.82;39.32;102891.28;5031787;28;51884;-43
2021/11/19 10:57:17;;;;;;;;;11.00;8.25;;;;;20.79;39.54;102883.38;5032224;28;51449;-47
2021/11/19 11:00:04;;;;;;;;;10.00;9.75;;;;;20.80;39.68;102882.34;5023482;28;51189;-46
2021/11/19 11:02:47;;;;;;;;;9.50;9.50;;;;;20.81;39.55;102883.19;5015146;28;51014;-47
2021/11/19 11:05:24;;;;;;;;;10.00;7.75;;;;;20.79;39.78;102883.38;5015058;28;51667;-44
2021/11/19 11:08:04;;;;;;;;;8.25;8.00;;;;;20.79;39.39;102879.78;5014699;27;50966;-46
2021/11/19 11:10:43;;;;;;;;;12.75;9.50;;;;;20.78;39.53;102883.56;5014896;28;51115;-49
2021/11/19 11:13:56;;;;;;;;;9.00;9.00;;;;;20.77;39.74;102877.19;5015053;28;51090;-46
2021/11/19 11:16:24;;;;;;;;;13.00;10.25;;;;;20.78;39.66;102883.56;5014650;28;50972;-50
2021/11/19 11:18:55;;;;;;;;;10.00;10.00;;;;;20.75;39.34;102874.63;5014855;28;51140;-46
2021/11/19 11:21:35;;;;;;;;;8.75;8.75;;;;;20.75;39.45;102874.63;5014845;28;51066;-45
2021/11/19 11:24:25;;;;;;;;;6.75;6.50;;;;;20.75;39.39;102868.25;5015102;28;51300;-45
2021/11/19 11:26:54;;;;;;;;;12.25;10.00;;;;;20.75;39.57;102868.25;5022639;28;50903;-45
2021/11/19 11:29:28;;;;;;;;;11.00;11.00;;;;;20.74;39.81;102866.53;5034347;28;51155;-46
2021/11/19 11:32:15;;;;;;;;;10.00;9.00;;;;;20.73;39.19;102867.56;5034129;28;51028;-43
2021/11/19 11:34:44;;;;;;;;;10.50;8.00;;;;;20.71;39.74;102867.72;5033730;27;51003;-43
2021/11/19 11:37:34;;;;;;;;;9.75;8.00;;;;;20.72;39.52;102863.06;5033944;28;51045;-44
2021/11/19 11:40:04;;;;;;;;;7.75;7.75;;;;;20.72;39.72;102863.94;5033758;28;51285;-44
2021/11/19 11:42:37;;;;;;;;;9.00;8.50;;;;;20.71;39.36;102861.38;5034033;28;51155;-46